Aérodrome :
LOGIN :

S'inscrire | Disclaimer

   EN    FR    IT 

 










Légende :    VFR   VFR Marginal   IFR   IFR Intensif   IFR Très Intensif
Visi : 
Plafond : 
>= 8 km
>= 3000ft
5 à 8 km
1000 à 3000 ft
1500m à 5 km
500 à 1000 ft
800 à 1500m
200 à 500 ft
< 800m
< 200 ft
Symboles :   Orages  Brouillard  Fortes neiges  Fortes précipitations  Vent > 20 kt
SIGMETs :   Divers  Orages  Givrage  Turbulence  Onde Orograph.  Cendres Volcan.






- Altitude de l'aérodrome : 20 ft


EBFN - Koksijde

DERNIER METAR :
  • 100523Z 24008KT 4000 -SHRA SCT010 SCT017 OVC060 13/12 Q0999 GRN GRN TEMPO YLO

METARs EXPIRÉS :
  • 100455Z 23011KT 9999 BKN010 OVC060 13/12 Q0999 RESHRA GRN GRN
  • 100452Z 23011KT 8000 SCT010 SCT017 OVC060 13/12 Q0999 RESHRA GRN GRN
  • 100425Z AUTO 21010KT 9999 -RA BKN008/// OVC025/// 13/12 Q0998 GRN
  • 100414Z AUTO 20010G20KT 3500 RA BKN011/// OVC025/// 14/13 Q0997 YLO
  • 100408Z AUTO 20008KT 9999 -RA SCT012/// OVC024/// 14/12 Q0997 GRN
  • 100355Z AUTO 20009KT 9999 BKN023/// BKN080/// 14/12 Q0997 WHT
  • 100343Z AUTO 20007KT 9999 SCT023/// BKN078/// 14/12 Q0997 WHT
  • 100325Z AUTO 20009KT 9999 -RA OVC072/// 14/13 Q0997 BLU
  • 100315Z AUTO 20009KT 9999 -RA OVC072/// 14/13 Q0996 BLU
  • 100303Z AUTO 20010KT 6000 RA OVC068/// 14/13 Q0997 WHT
  • 100225Z AUTO 21007KT 9999 -RA BKN028/// OVC058/// 14/13 Q0996 BLU

TAF TAF EBFN
Valide du 09 à 19h jusqu'au 10 à 07h UTC


091541Z 0919/1007 17008KT 9999 SCT060 SCT080
TEMPO 0919/0922 18015G30KT 4000 SHRA SCT020TCU
PROB40
TEMPO 0919/0922 18015G40KT 2000 TSRA BKN020CB BKN050
BECMG 1001/1003 21008KT BKN020
TEMPO 1001/1007 3000 RA SHRA BKN012 BY EBWM



MET'MAP, la Météo Aéronautique d'un coup d'oeil ! - Copyright ORBIFLY Décembre 2007 - Disclaimer

ORBIFLY MET'MAP TEAM :

Programmation & Développement : Alexandra Zaïnal
Sur une idée originale de : Baudouin d'Aumeries
Assistance à la programmation : Marc-Olivier Méhu
Soutien technique & logistique : Manuel Goepfert

Contact : metmap@orbifly.com




SOURCES & CREDITS :

   NOAA